createdAt,value
2018-07-11T00:00:55.683Z,63.70
2018-07-11T00:03:43.565Z,63.70
2018-07-11T00:06:15.241Z,63.40
2018-07-11T00:08:45.592Z,63.00
2018-07-11T00:11:16.374Z,63.20
2018-07-11T00:13:47.495Z,63.40
2018-07-11T00:16:18.029Z,63.50
2018-07-11T00:18:48.304Z,63.50
2018-07-11T00:21:18.633Z,63.20
2018-07-11T00:23:48.906Z,62.60
2018-07-11T00:26:19.135Z,62.20
2018-07-11T00:28:50.086Z,61.80
2018-07-11T00:31:20.473Z,61.60
2018-07-11T00:33:50.897Z,61.80
2018-07-11T00:36:21.356Z,61.70
2018-07-11T00:38:51.658Z,61.80
2018-07-11T00:41:21.972Z,62.10
2018-07-11T00:43:52.202Z,62.40
2018-07-11T00:46:22.462Z,62.50
2018-07-11T00:48:52.727Z,62.90
2018-07-11T00:51:22.984Z,63.30
2018-07-11T00:53:53.570Z,63.20
2018-07-11T00:56:24.236Z,63.40
2018-07-11T00:59:06.731Z,63.40
2018-07-11T01:01:38.870Z,63.40
2018-07-11T01:04:09.141Z,63.30
2018-07-11T01:06:39.398Z,63.80
2018-07-11T01:09:09.783Z,64.10
2018-07-11T01:11:40.083Z,63.90
2018-07-11T01:14:10.326Z,63.70
2018-07-11T01:16:40.626Z,63.40
2018-07-11T01:19:11.883Z,63.50
2018-07-11T01:21:42.157Z,63.50
2018-07-11T01:24:12.356Z,63.20
2018-07-11T01:26:42.599Z,62.80
2018-07-11T01:29:12.830Z,62.60
2018-07-11T01:31:43.110Z,63.10
2018-07-11T01:34:13.341Z,62.10
2018-07-11T01:36:43.714Z,62.00
2018-07-11T01:39:16.679Z,62.00
2018-07-11T01:41:47.792Z,62.00
2018-07-11T01:44:18.036Z,61.80
2018-07-11T01:46:49.671Z,62.70
2018-07-11T01:49:19.967Z,62.70
2018-07-11T01:52:07.103Z,62.70
2018-07-11T01:54:37.362Z,62.70
2018-07-11T01:57:07.691Z,63.00
2018-07-11T01:59:38.357Z,62.50
2018-07-11T02:02:08.734Z,63.20
2018-07-11T02:04:41.683Z,62.50
2018-07-11T02:07:13.052Z,62.60
2018-07-11T02:09:43.385Z,62.80
2018-07-11T02:12:13.810Z,62.80
2018-07-11T02:14:50.090Z,63.10
2018-07-11T02:17:20.600Z,63.30
2018-07-11T02:19:50.987Z,63.60
2018-07-11T02:22:21.962Z,63.80
2018-07-11T02:24:52.365Z,63.40
2018-07-11T02:27:22.757Z,63.80
2018-07-11T02:29:53.090Z,64.10
2018-07-11T02:32:23.431Z,64.20
2018-07-11T02:34:53.762Z,64.20
2018-07-11T02:37:24.083Z,64.10
2018-07-11T02:39:54.371Z,64.10
2018-07-11T02:42:25.146Z,64.10
2018-07-11T02:44:55.477Z,64.00
2018-07-11T02:47:31.032Z,63.90
2018-07-11T02:50:01.535Z,63.80
2018-07-11T02:52:32.596Z,63.80
2018-07-11T02:57:32.895Z,64.20
2018-07-11T03:00:03.262Z,64.10
2018-07-11T03:02:33.692Z,64.00
2018-07-11T03:05:04.127Z,64.30
2018-07-11T03:07:34.919Z,64.10
2018-07-11T03:10:05.315Z,63.70
2018-07-11T03:12:35.659Z,64.00
2018-07-11T03:15:05.992Z,63.90
2018-07-11T03:17:36.319Z,63.80
2018-07-11T03:20:06.827Z,63.50
2018-07-11T03:22:37.203Z,63.40
2018-07-11T03:25:07.493Z,63.70
2018-07-11T03:27:37.836Z,63.40
2018-07-11T03:30:08.159Z,63.40
2018-07-11T03:32:38.565Z,63.80
2018-07-11T03:35:08.889Z,63.60
2018-07-11T03:37:39.207Z,63.40
2018-07-11T03:40:09.934Z,63.60
2018-07-11T03:42:40.399Z,63.80
2018-07-11T03:45:10.763Z,64.10
2018-07-11T03:47:41.206Z,65.20
2018-07-11T03:50:11.497Z,65.30
2018-07-11T03:52:41.808Z,65.80
2018-07-11T03:55:12.131Z,65.70
2018-07-11T03:57:43.023Z,66.20
2018-07-11T04:00:13.433Z,66.90
2018-07-11T04:02:43.828Z,67.50
2018-07-11T04:05:14.508Z,68.30
2018-07-11T04:07:44.902Z,69.30
2018-07-11T04:10:15.243Z,70.30
2018-07-11T04:12:45.507Z,70.80
2018-07-11T04:15:15.766Z,71.20
2018-07-11T04:17:46.047Z,71.40
2018-07-11T04:20:16.341Z,71.60
2018-07-11T04:22:46.655Z,71.50
2018-07-11T04:25:16.974Z,71.80
2018-07-11T04:27:48.628Z,72.30
2018-07-11T04:30:18.978Z,72.90
2018-07-11T04:32:49.328Z,73.00
2018-07-11T04:35:19.611Z,73.30
2018-07-11T04:37:50.035Z,73.60
2018-07-11T04:40:20.431Z,74.20
2018-07-11T04:42:50.836Z,74.30
2018-07-11T04:45:22.554Z,74.50
2018-07-11T04:47:52.935Z,74.00
2018-07-11T04:50:27.813Z,73.70
2018-07-11T04:53:06.236Z,73.80
2018-07-11T04:55:37.248Z,73.80
2018-07-11T04:58:07.807Z,74.10
2018-07-11T05:03:14.461Z,74.80
2018-07-11T05:05:45.412Z,74.30
2018-07-11T05:08:15.730Z,73.80
2018-07-11T05:10:47.077Z,73.60
2018-07-11T05:13:17.356Z,73.20
2018-07-11T05:15:47.827Z,73.20
2018-07-11T05:18:18.157Z,73.10
2018-07-11T05:21:10.522Z,72.80
2018-07-11T05:23:41.021Z,72.70
2018-07-11T05:26:11.419Z,71.20
2018-07-11T05:28:41.748Z,70.60
2018-07-11T05:31:12.050Z,71.10
2018-07-11T05:33:42.375Z,71.90
2018-07-11T05:36:12.694Z,72.40
2018-07-11T05:38:42.910Z,72.50
2018-07-11T05:41:13.252Z,71.90
2018-07-11T05:43:43.524Z,71.80
2018-07-11T05:46:13.861Z,71.50
2018-07-11T05:48:44.127Z,71.90
2018-07-11T05:51:14.444Z,71.40
2018-07-11T05:53:44.698Z,70.60
2018-07-11T05:56:15.013Z,71.00
2018-07-11T05:58:45.302Z,71.70
2018-07-11T06:01:15.614Z,72.10
2018-07-11T06:03:45.882Z,72.00
2018-07-11T06:06:16.215Z,72.30
2018-07-11T06:08:46.540Z,72.20
2018-07-11T06:11:21.707Z,73.20
2018-07-11T06:13:53.126Z,72.40
2018-07-11T06:16:23.899Z,71.60
2018-07-11T06:18:54.174Z,72.00
2018-07-11T06:21:25.700Z,70.50
2018-07-11T06:23:56.377Z,70.50
2018-07-11T06:26:26.767Z,70.90
2018-07-11T06:28:57.013Z,71.40
2018-07-11T06:31:27.343Z,70.10
2018-07-11T06:33:57.635Z,70.50
2018-07-11T06:36:27.951Z,69.70
2018-07-11T06:38:58.238Z,70.70
2018-07-11T06:41:28.626Z,71.80
2018-07-11T06:43:58.969Z,71.60
2018-07-11T06:46:29.305Z,71.70
2018-07-11T06:49:00.283Z,71.40
2018-07-11T06:51:32.079Z,71.80
2018-07-11T06:54:03.602Z,72.00
2018-07-11T06:56:34.606Z,72.30
2018-07-11T06:59:05.290Z,71.40
2018-07-11T07:01:36.066Z,70.70
2018-07-11T07:04:06.352Z,71.50
2018-07-11T07:06:36.755Z,70.70
2018-07-11T07:09:07.361Z,68.90
2018-07-11T07:11:37.844Z,67.20
2018-07-11T07:14:08.276Z,67.40
2018-07-11T07:16:38.817Z,67.80
2018-07-11T07:19:09.166Z,67.50
2018-07-11T07:21:39.589Z,66.10
2018-07-11T07:24:09.867Z,66.90
2018-07-11T07:26:40.347Z,68.10
2018-07-11T07:29:10.728Z,66.70
2018-07-11T07:31:41.002Z,65.30
2018-07-11T07:34:11.335Z,65.40
2018-07-11T07:36:41.653Z,64.70
2018-07-11T07:39:12.521Z,64.10
2018-07-11T07:41:42.846Z,65.10
2018-07-11T07:44:13.660Z,65.30
2018-07-11T07:46:49.411Z,65.60
2018-07-11T07:49:20.199Z,64.50
2018-07-11T07:51:50.491Z,64.70
2018-07-11T07:54:20.804Z,60.50
2018-07-11T07:56:51.454Z,61.30
2018-07-11T07:59:22.858Z,62.70
2018-07-11T08:01:53.135Z,63.10
2018-07-11T08:04:23.757Z,60.50
2018-07-11T08:06:54.099Z,60.50
2018-07-11T08:09:24.399Z,59.50
2018-07-11T08:11:54.658Z,60.80
2018-07-11T08:14:24.974Z,61.20
2018-07-11T08:16:55.206Z,60.70
2018-07-11T08:21:55.522Z,62.10
2018-07-11T08:24:42.742Z,62.10
2018-07-11T08:29:47.363Z,62.40
2018-07-11T08:33:38.826Z,61.60
2018-07-11T08:39:28.775Z,60.20
2018-07-11T08:42:35.232Z,60.90
2018-07-11T08:45:50.768Z,61.20
2018-07-11T08:48:36.567Z,61.60
2018-07-11T08:52:32.025Z,57.10
2018-07-11T08:55:44.127Z,58.90
2018-07-11T09:00:36.118Z,55.70
2018-07-11T09:03:26.505Z,55.80
2018-07-11T09:06:09.879Z,54.90
2018-07-11T09:11:16.791Z,49.40
2018-07-11T09:14:00.516Z,50.40
2018-07-11T09:17:34.854Z,50.70
2018-07-11T09:20:22.643Z,50.10
2018-07-11T09:23:40.917Z,50.00
2018-07-11T09:26:11.188Z,47.00
2018-07-11T09:28:41.570Z,47.50
2018-07-11T09:31:12.343Z,48.70
2018-07-11T09:33:44.174Z,49.40
2018-07-11T09:36:14.991Z,49.40
2018-07-11T09:38:45.472Z,50.80
2018-07-11T09:41:15.793Z,51.50
2018-07-11T09:43:46.170Z,49.50
2018-07-11T09:46:16.463Z,50.20
2018-07-11T09:48:47.668Z,46.60
2018-07-11T09:51:18.346Z,45.70
2018-07-11T09:53:48.674Z,45.20
2018-07-11T09:56:19.730Z,47.00
2018-07-11T09:58:51.429Z,48.40
2018-07-11T10:01:25.049Z,48.80
2018-07-11T10:03:57.470Z,48.20
2018-07-11T10:06:29.178Z,48.10
2018-07-11T10:09:02.112Z,48.70
2018-07-11T10:11:32.744Z,47.60
2018-07-11T10:14:03.981Z,48.10
2018-07-11T10:16:35.463Z,47.10
2018-07-11T10:19:06.608Z,46.90
2018-07-11T10:21:37.734Z,45.80
2018-07-11T10:24:08.653Z,45.30
2018-07-11T10:26:39.407Z,44.50
2018-07-11T10:29:09.699Z,45.70
2018-07-11T10:31:40.013Z,45.20
2018-07-11T10:34:10.675Z,47.10
2018-07-11T10:36:41.062Z,48.20
2018-07-11T10:39:11.837Z,47.80
2018-07-11T10:41:42.566Z,49.00
2018-07-11T10:44:12.950Z,47.60
2018-07-11T10:46:43.366Z,48.10
2018-07-11T10:49:13.705Z,48.70
2018-07-11T10:51:44.390Z,48.60
2018-07-11T10:54:14.813Z,47.60
2018-07-11T10:56:45.383Z,46.90
2018-07-11T10:59:15.805Z,45.60
2018-07-11T11:01:46.219Z,45.80
2018-07-11T11:04:20.685Z,47.00
2018-07-11T11:06:51.501Z,44.20
2018-07-11T11:09:21.972Z,44.70
2018-07-11T11:11:52.507Z,44.70
2018-07-11T11:14:23.244Z,43.50
2018-07-11T11:16:53.671Z,45.70
2018-07-11T11:19:24.251Z,46.00
2018-07-11T11:21:54.979Z,46.20
2018-07-11T11:24:25.966Z,46.80
2018-07-11T11:26:56.741Z,47.50
2018-07-11T11:29:29.230Z,47.40
2018-07-11T11:32:00.109Z,46.90
2018-07-11T11:34:31.891Z,45.00
2018-07-11T11:37:02.543Z,44.20
2018-07-11T11:39:32.812Z,41.80
2018-07-11T11:42:04.113Z,40.90
2018-07-11T11:45:07.841Z,40.80
2018-07-11T11:47:44.293Z,41.50
2018-07-11T11:50:15.591Z,41.70
2018-07-11T11:52:46.327Z,42.20
2018-07-11T11:55:17.362Z,42.80
2018-07-11T11:57:50.470Z,41.60
2018-07-11T12:00:22.217Z,40.20
2018-07-11T12:02:54.389Z,39.30
2018-07-11T12:05:24.995Z,38.60
2018-07-11T12:07:55.830Z,39.00
2018-07-11T12:10:26.560Z,38.00
2018-07-11T12:12:57.321Z,37.60
2018-07-11T12:15:28.296Z,37.90
2018-07-11T12:17:59.311Z,39.40
2018-07-11T12:20:29.940Z,39.70
2018-07-11T12:23:00.766Z,41.10
2018-07-11T12:25:31.417Z,41.40
2018-07-11T12:28:08.365Z,42.20
2018-07-11T12:30:38.866Z,43.00
2018-07-11T12:33:09.934Z,43.60
2018-07-11T12:35:40.581Z,43.90
2018-07-11T12:38:10.932Z,44.40
2018-07-11T12:40:41.835Z,44.40
2018-07-11T12:43:12.894Z,44.10
2018-07-11T12:45:43.566Z,44.60
2018-07-11T12:48:19.143Z,43.50
2018-07-11T12:50:49.638Z,42.10
2018-07-11T12:53:20.911Z,42.70
2018-07-11T12:55:51.531Z,41.40
2018-07-11T12:58:22.668Z,41.80
2018-07-11T13:00:53.623Z,42.00
2018-07-11T13:03:24.355Z,41.70
2018-07-11T13:05:54.699Z,42.70
2018-07-11T13:08:25.311Z,42.20
2018-07-11T13:10:56.979Z,42.30
2018-07-11T13:13:27.907Z,40.90
2018-07-11T13:15:58.809Z,42.00
2018-07-11T13:18:29.804Z,39.60
2018-07-11T13:21:01.773Z,40.40
2018-07-11T13:23:33.027Z,39.50
2018-07-11T13:26:04.575Z,37.30
2018-07-11T13:28:35.919Z,36.40
2018-07-11T13:31:07.643Z,36.30
2018-07-11T13:33:38.928Z,35.30
2018-07-11T13:36:13.548Z,36.10
2018-07-11T13:38:44.473Z,37.10
2018-07-11T13:41:15.066Z,36.50
2018-07-11T13:43:45.778Z,37.80
2018-07-11T13:46:16.243Z,38.40
2018-07-11T13:48:47.083Z,38.00
2018-07-11T13:51:17.544Z,38.60
2018-07-11T13:53:47.978Z,38.00
2018-07-11T13:56:18.868Z,38.10
2018-07-11T13:58:50.570Z,38.60
2018-07-11T14:01:21.602Z,39.40
2018-07-11T14:03:52.158Z,39.40
2018-07-11T14:06:22.652Z,40.30
2018-07-11T14:08:53.342Z,38.70
2018-07-11T14:11:24.249Z,37.50
2018-07-11T14:13:55.050Z,37.50
2018-07-11T14:16:25.668Z,36.60
2018-07-11T14:18:56.552Z,35.70
2018-07-11T14:21:26.862Z,35.60
2018-07-11T14:23:57.285Z,33.90
2018-07-11T14:26:29.644Z,34.80
2018-07-11T14:29:03.201Z,34.80
2018-07-11T14:31:36.549Z,34.80
2018-07-11T14:34:09.747Z,34.50
2018-07-11T14:36:41.094Z,33.80
2018-07-11T14:41:41.844Z,36.50
2018-07-11T14:44:12.438Z,38.10
2018-07-11T14:46:43.142Z,39.50
2018-07-11T14:49:16.031Z,38.00
2018-07-11T14:51:47.895Z,39.20
2018-07-11T14:54:19.038Z,38.80
2018-07-11T14:56:50.135Z,37.00
2018-07-11T14:59:21.158Z,37.40
2018-07-11T15:01:51.434Z,35.70
2018-07-11T15:04:21.894Z,35.90
2018-07-11T15:06:52.223Z,35.20
2018-07-11T15:09:23.120Z,34.40
2018-07-11T15:11:53.543Z,32.90
2018-07-11T15:14:25.244Z,33.90
2018-07-11T15:16:57.851Z,32.60
2018-07-11T15:21:59.595Z,31.40
2018-07-11T15:24:29.935Z,32.50
2018-07-11T15:27:00.390Z,33.90
2018-07-11T15:29:31.353Z,34.10
2018-07-11T15:32:02.395Z,34.10
2018-07-11T15:34:33.801Z,36.00
2018-07-11T15:37:05.059Z,35.50
2018-07-11T15:39:37.163Z,36.10
2018-07-11T15:42:07.502Z,35.40
2018-07-11T15:44:37.988Z,34.40
2018-07-11T15:47:08.654Z,33.80
2018-07-11T15:49:39.003Z,33.50
2018-07-11T15:52:10.884Z,34.00
2018-07-11T15:54:42.702Z,33.60
2018-07-11T15:57:14.438Z,32.90
2018-07-11T15:59:54.488Z,33.70
2018-07-11T16:02:24.975Z,32.90
2018-07-11T16:04:56.468Z,32.90
2018-07-11T16:07:30.408Z,33.50
2018-07-11T16:10:00.810Z,34.10
2018-07-11T16:12:31.141Z,35.40
2018-07-11T16:15:01.994Z,35.80
2018-07-11T16:17:38.916Z,35.70
2018-07-11T16:20:09.448Z,34.90
2018-07-11T16:22:40.750Z,36.00
2018-07-11T16:25:11.198Z,35.10
2018-07-11T16:27:41.745Z,34.30
2018-07-11T16:30:12.126Z,35.80
2018-07-11T16:32:43.122Z,35.00
2018-07-11T16:35:13.508Z,35.00
2018-07-11T16:37:45.298Z,35.90
2018-07-11T16:40:16.102Z,36.70
2018-07-11T16:42:47.931Z,37.50
2018-07-11T16:45:18.286Z,37.70
2018-07-11T16:47:48.623Z,38.30
2018-07-11T16:50:19.670Z,38.90
2018-07-11T16:52:51.007Z,38.80
2018-07-11T16:55:32.605Z,39.20
2018-07-11T16:58:03.457Z,39.20
2018-07-11T17:00:34.914Z,39.50
2018-07-11T17:03:12.679Z,38.70
2018-07-11T17:05:55.219Z,39.40
2018-07-11T17:08:33.529Z,38.80
2018-07-11T17:11:18.339Z,39.80
2018-07-11T17:13:55.958Z,39.80
2018-07-11T17:16:44.888Z,39.00
2018-07-11T17:19:31.736Z,39.70
2018-07-11T17:22:05.890Z,41.10
2018-07-11T17:24:46.911Z,40.60
2018-07-11T17:27:21.417Z,41.10
2018-07-11T17:29:53.411Z,41.10
2018-07-11T17:32:23.926Z,41.60
2018-07-11T17:34:54.502Z,42.00
2018-07-11T17:37:32.131Z,42.40
2018-07-11T17:40:10.153Z,41.60
2018-07-11T17:42:45.310Z,41.60
2018-07-11T17:45:19.650Z,41.80
2018-07-11T17:48:07.512Z,41.90
2018-07-11T17:50:39.139Z,40.00
2018-07-11T17:53:17.894Z,40.90
2018-07-11T17:56:04.818Z,40.90
2018-07-11T17:59:00.151Z,41.10
2018-07-11T18:01:49.429Z,41.90
2018-07-11T18:04:40.435Z,41.50
2018-07-11T18:07:15.930Z,42.20
2018-07-11T18:09:58.870Z,42.10
2018-07-11T18:12:40.484Z,41.60
2018-07-11T18:15:56.431Z,43.10
2018-07-11T18:18:41.504Z,42.90
2018-07-11T18:23:33.703Z,41.70
2018-07-11T18:26:52.087Z,42.80
2018-07-11T18:29:38.130Z,43.20
2018-07-11T18:33:22.938Z,43.90
2018-07-11T18:36:18.590Z,45.10
2018-07-11T18:39:24.966Z,44.80
2018-07-11T18:42:43.151Z,45.50
2018-07-11T18:45:42.360Z,47.40
2018-07-11T18:49:38.891Z,48.00
2018-07-11T18:52:32.885Z,48.60
2018-07-11T18:55:24.235Z,49.40
2018-07-11T18:58:15.515Z,51.10
2018-07-11T19:06:07.206Z,52.10
2018-07-11T19:08:52.617Z,52.20
2018-07-11T19:11:27.416Z,54.10
2018-07-11T19:14:06.028Z,55.30
2018-07-11T19:16:51.175Z,55.50
2018-07-11T19:19:34.007Z,55.50
2018-07-11T19:24:55.697Z,56.00
2018-07-11T19:27:41.616Z,55.50
2018-07-11T19:30:20.527Z,54.70
2018-07-11T19:36:14.366Z,54.90
2018-07-11T19:39:06.379Z,55.50
2018-07-11T19:41:58.701Z,56.10
2018-07-11T19:44:58.883Z,57.00
2018-07-11T19:48:46.057Z,57.30
2018-07-11T19:54:34.590Z,57.30
2018-07-11T19:57:09.405Z,57.60
2018-07-11T19:59:41.753Z,58.10
2018-07-11T20:02:13.225Z,58.70
2018-07-11T20:04:50.372Z,58.20
2018-07-11T20:07:24.291Z,58.70
2018-07-11T20:09:55.967Z,58.50
2018-07-11T20:12:29.736Z,57.90
2018-07-11T20:15:00.884Z,57.70
2018-07-11T20:17:32.011Z,58.20
2018-07-11T20:20:03.355Z,57.60
2018-07-11T20:22:34.756Z,57.80
2018-07-11T20:25:06.844Z,58.10
2018-07-11T20:27:40.650Z,58.30
2018-07-11T20:30:12.434Z,58.20
2018-07-11T20:32:52.654Z,58.00
2018-07-11T20:35:30.012Z,58.20
2018-07-11T20:38:00.818Z,58.20
2018-07-11T20:40:33.152Z,58.50
2018-07-11T20:43:03.747Z,58.80
2018-07-11T20:45:36.758Z,58.90
2018-07-11T20:48:07.123Z,59.00
2018-07-11T20:50:38.462Z,58.90
2018-07-11T20:53:10.207Z,58.80
2018-07-11T20:55:42.294Z,59.10
2018-07-11T20:58:30.066Z,59.80
2018-07-11T21:01:18.210Z,59.20
2018-07-11T21:05:18.375Z,59.30
2018-07-11T21:08:37.700Z,59.80
2018-07-11T21:11:52.485Z,60.30
2018-07-11T21:14:45.549Z,60.90
2018-07-11T21:17:32.583Z,61.30
2018-07-11T21:20:03.139Z,61.90
2018-07-11T21:22:33.686Z,62.40
2018-07-11T21:25:04.235Z,62.70
2018-07-11T21:27:34.498Z,63.00
2018-07-11T21:30:05.546Z,63.40
2018-07-11T21:32:36.822Z,63.80
2018-07-11T21:35:16.386Z,63.90
2018-07-11T21:37:47.016Z,63.80
2018-07-11T21:40:20.170Z,63.60
2018-07-11T21:42:50.622Z,63.50
2018-07-11T21:45:21.066Z,63.30
2018-07-11T21:47:51.424Z,63.20
2018-07-11T21:50:21.867Z,63.20
2018-07-11T21:52:52.312Z,63.10
2018-07-11T21:55:22.699Z,63.40
2018-07-11T21:57:53.216Z,63.80
2018-07-11T22:00:36.742Z,64.00
2018-07-11T22:03:09.606Z,63.90
2018-07-11T22:05:40.037Z,63.60
2018-07-11T22:08:10.404Z,63.70
2018-07-11T22:10:41.215Z,64.10
2018-07-11T22:13:11.552Z,64.30
2018-07-11T22:15:42.028Z,64.50
2018-07-11T22:18:29.450Z,64.30
2018-07-11T22:20:59.450Z,64.30
2018-07-11T22:23:28.455Z,64.10
2018-07-11T22:25:57.115Z,64.00
2018-07-11T22:28:26.519Z,63.80
2018-07-11T22:30:55.318Z,63.80
2018-07-11T22:33:24.047Z,63.80
2018-07-11T22:35:52.833Z,63.60
2018-07-11T22:38:21.434Z,63.60
2018-07-11T22:40:50.011Z,63.70
2018-07-11T22:43:18.626Z,63.60
2018-07-11T22:45:47.198Z,63.60
2018-07-11T22:48:16.125Z,63.60
2018-07-11T22:50:44.857Z,63.70
2018-07-11T22:53:14.686Z,64.00
2018-07-11T22:55:44.539Z,64.00
2018-07-11T22:58:13.396Z,63.80
2018-07-11T23:00:42.099Z,63.80
2018-07-11T23:03:10.686Z,64.00
2018-07-11T23:05:39.419Z,64.10
2018-07-11T23:08:07.997Z,64.20
2018-07-11T23:10:36.555Z,64.30
2018-07-11T23:13:05.171Z,65.10
2018-07-11T23:15:33.826Z,64.30
2018-07-11T23:18:02.400Z,64.50
2018-07-11T23:20:30.987Z,64.40
2018-07-11T23:22:59.745Z,64.60
2018-07-11T23:25:28.909Z,64.90
2018-07-11T23:27:57.679Z,65.20
2018-07-11T23:30:26.270Z,65.20
2018-07-11T23:32:54.874Z,65.70
2018-07-11T23:35:23.782Z,64.90
2018-07-11T23:37:53.404Z,64.70
2018-07-11T23:40:22.188Z,64.00
2018-07-11T23:42:50.747Z,64.50
2018-07-11T23:45:19.451Z,64.70
2018-07-11T23:50:17.161Z,64.40
2018-07-11T23:52:45.902Z,64.00
2018-07-11T23:55:14.478Z,63.60
2018-07-11T23:57:43.224Z,63.80
